Terminal Aerodrome Forecast
Issued by NWS

Home | Current Version | Previous Version | Text Only | Print | Product List | Glossary On
Versions: 1 2 3 4 5 6 7 8 9 10 11 12 13
000
FTUS44 KTSA 262300
TAFMLC
TAF
KMLC 262320Z 2700/2724 01015G19KT P6SM FEW110 SCT250
     FM270100 03010KT P6SM BKN100
     FM271200 05010KT P6SM BKN025 BKN090=

USA.gov is the U.S. government's official web portal to all federal, state and local government web resources and services.